Terminal Aerodrome Forecast
Issued by NWS

Current Version | Previous Version | Text Only | Print | Product List | Glossary On
Versions: 1 2 3 4 5 6 7 8 9 10 11 12 13 14 15 16 17 18 19 20
853
FTUS44 KLZK 202335
TAFHOT
TAF
KHOT 202335Z 2100/2124 18008KT P6SM VCSH SCT020 OVC050
      WS020/19040KT
     FM210200 21008G15KT 6SM -SHRA VCTS BKN010CB OVC040
      WS020/20030KT
     FM210900 33009KT 4SM RA BR VCTS BKN008CB OVC020
      TEMPO 2109/2112 2SM RA BR OVC008
     FM211400 03008G16KT 4SM RA BR VCTS BKN005CB OVC030=

USA.gov is the U.S. government's official web portal to all federal, state and local government web resources and services.